Time;durP1;ratioP1;P1;durP2;ratioP2;P2;SDS_P1;SDS_P2;PMS_P1;PMS_P2;Temp;Humidity;BMP_temperature;BMP_pressure;BME280_temperature;BME280_humidity;BME280_pressure;Samples;Min_cycle;Max_cycle;Signal;HPM_P1;HPM_P2
2023/09/24 00:01:22;;;;;;;6.00;2.75;;;;;;;21.99;46.56;101729.38;5095571;28;20044;-48
2023/09/24 00:04:10;;;;;;;6.78;3.58;;;;;;;22.00;46.58;101725.41;5107647;28;20052;-46
2023/09/24 00:06:57;;;;;;;9.50;3.47;;;;;;;21.98;46.35;101737.00;5095430;28;20063;-46
2023/09/24 00:09:45;;;;;;;7.65;2.97;;;;;;;21.96;46.78;101741.34;5095066;28;20516;-48
2023/09/24 00:12:32;;;;;;;7.72;3.25;;;;;;;21.96;46.63;101733.75;5095029;28;20062;-48
2023/09/24 00:15:20;;;;;;;6.40;3.15;;;;;;;21.94;46.92;101733.28;5094902;28;20047;-45
2023/09/24 00:18:07;;;;;;;7.47;3.10;;;;;;;21.97;46.57;101738.16;5095202;28;20079;-44
2023/09/24 00:20:55;;;;;;;7.43;3.60;;;;;;;21.96;46.59;101741.34;5094561;28;20051;-46
2023/09/24 00:23:44;;;;;;;7.20;3.17;;;;;;;21.96;46.48;101735.72;5077445;28;20059;-45
2023/09/24 00:26:32;;;;;;;7.18;3.08;;;;;;;22.01;46.64;101727.00;5074942;28;20061;-44
2023/09/24 00:29:19;;;;;;;8.52;3.67;;;;;;;21.95;46.59;101746.13;5060421;28;20110;-45
2023/09/24 00:32:07;;;;;;;6.75;3.10;;;;;;;21.95;46.62;101750.94;5074312;28;20410;-45
2023/09/24 00:34:55;;;;;;;8.50;3.47;;;;;;;21.91;46.53;101748.06;5074933;28;20052;-46
2023/09/24 00:37:43;;;;;;;8.80;3.53;;;;;;;21.92;46.37;101748.84;5073229;28;20068;-48
2023/09/24 00:40:31;;;;;;;6.90;3.40;;;;;;;21.92;46.62;101746.88;5079897;28;20044;-47
2023/09/24 00:43:28;;;;;;;6.95;3.20;;;;;;;21.93;46.57;101750.50;5079671;28;20052;-43
2023/09/24 00:46:16;;;;;;;8.93;3.90;;;;;;;21.93;46.48;101756.88;5074451;28;20060;-43
2023/09/24 00:49:04;;;;;;;8.70;3.65;;;;;;;21.95;46.54;101757.34;5073090;28;20494;-43
2023/09/24 00:51:52;;;;;;;7.97;3.72;;;;;;;21.99;46.71;101754.63;5074616;28;20052;-46
2023/09/24 00:54:40;;;;;;;9.63;3.60;;;;;;;21.96;46.82;101764.59;5073562;28;20065;-48
2023/09/24 00:57:28;;;;;;;8.02;3.53;;;;;;;21.92;46.91;101760.88;5073684;28;20053;-45
2023/09/24 01:00:17;;;;;;;7.90;3.60;;;;;;;21.96;46.65;101759.00;5102611;28;20059;-44
2023/09/24 01:03:06;;;;;;;7.85;3.60;;;;;;;21.97;46.66;101748.56;5079651;28;20039;-45
2023/09/24 01:05:54;;;;;;;8.18;4.00;;;;;;;21.97;46.70;101756.97;5078303;28;20383;-44
2023/09/24 01:08:42;;;;;;;7.30;3.45;;;;;;;21.94;46.69;101747.31;5093743;28;20055;-46
2023/09/24 01:11:31;;;;;;;8.27;3.75;;;;;;;21.92;46.54;101755.28;5094347;28;20052;-48
2023/09/24 01:14:20;;;;;;;8.40;3.97;;;;;;;21.91;46.77;101759.28;5094501;28;20060;-44
2023/09/24 01:17:11;;;;;;;9.55;4.35;;;;;;;21.89;46.77;101753.22;5075238;28;20052;-46
2023/09/24 01:19:58;;;;;;;8.65;3.67;;;;;;;21.89;46.69;101753.22;5079286;28;20048;-49
2023/09/24 01:22:46;;;;;;;8.77;3.70;;;;;;;21.88;46.94;101762.00;5078388;28;20063;-43
2023/09/24 01:25:35;;;;;;;10.68;3.95;;;;;;;21.86;46.73;101745.50;5094373;28;20052;-47
2023/09/24 01:28:23;;;;;;;7.35;4.18;;;;;;;21.88;46.90;101748.75;5094237;28;20060;-40
2023/09/24 01:31:11;;;;;;;8.38;4.25;;;;;;;21.88;46.63;101757.19;5083939;28;20075;-43
2023/09/24 01:33:59;;;;;;;8.43;3.92;;;;;;;21.89;46.82;101753.22;5073258;28;20048;-43
2023/09/24 01:36:47;;;;;;;7.75;4.25;;;;;;;21.86;47.11;101756.72;5072415;28;20498;-46
2023/09/24 01:39:36;;;;;;;9.65;4.00;;;;;;;;;;5047728;28;20050;-46
2023/09/24 01:42:23;;;;;;;8.82;4.03;;;;;;;21.85;46.93;101762.69;5093058;28;20063;-47
2023/09/24 01:45:11;;;;;;;7.90;3.90;;;;;;;21.84;46.93;101766.69;5092917;28;20056;-40
2023/09/24 01:47:59;;;;;;;8.65;3.88;;;;;;;21.86;46.79;101765.13;5106659;28;20425;-46
2023/09/24 01:50:47;;;;;;;8.30;4.57;;;;;;;21.85;46.67;101757.91;5092229;28;20066;-47
2023/09/24 01:53:36;;;;;;;9.15;4.22;;;;;;;21.84;47.28;101758.28;5078477;28;20055;-43
2023/09/24 01:56:24;;;;;;;7.55;3.65;;;;;;;21.83;47.07;101765.88;5078612;28;20052;-49
2023/09/24 01:59:12;;;;;;;8.55;3.55;;;;;;;21.86;46.85;101762.34;5058606;28;20072;-39
2023/09/24 02:02:00;;;;;;;9.70;3.97;;;;;;;21.83;47.03;101751.03;5072730;28;20053;-49
2023/09/24 02:04:48;;;;;;;9.77;4.10;;;;;;;21.85;47.06;101757.09;5072615;28;20063;-48
2023/09/24 02:07:40;;;;;;;8.63;3.80;;;;;;;21.88;47.21;101756.38;5073276;28;20057;-48
2023/09/24 02:10:28;;;;;;;8.48;3.63;;;;;;;21.86;47.06;101756.72;5072069;28;20111;-49
2023/09/24 02:13:15;;;;;;;8.02;3.70;;;;;;;21.84;46.82;101761.09;5045004;28;20052;-45
2023/09/24 02:16:07;;;;;;;10.15;3.88;;;;;;;21.84;47.24;101763.88;5058410;28;20064;-45
2023/09/24 02:18:55;;;;;;;11.43;3.78;;;;;;;21.82;47.03;101772.69;5083706;28;20059;-43
2023/09/24 02:21:42;;;;;;;7.32;3.42;;;;;;;21.81;47.12;101770.25;5093108;28;20056;-39
2023/09/24 02:24:29;;;;;;;8.05;3.90;;;;;;;21.85;46.59;101759.91;5085887;28;20051;-40
2023/09/24 02:27:17;;;;;;;6.03;3.17;;;;;;;21.84;46.32;101761.09;5091766;28;20056;-40
2023/09/24 02:30:06;;;;;;;8.55;3.70;;;;;;;21.83;46.68;101768.69;5076895;28;20060;-43
2023/09/24 02:32:55;;;;;;;9.55;3.88;;;;;;;21.80;46.58;101772.22;5092238;28;20040;-42
2023/09/24 02:35:43;;;;;;;7.97;3.17;;;;;;;21.79;46.61;101758.56;5078742;28;20055;-39
2023/09/24 02:38:31;;;;;;;7.60;3.58;;;;;;;21.77;46.50;101761.72;5077755;28;20044;-41
2023/09/24 02:41:19;;;;;;;6.38;3.25;;;;;;;21.75;46.77;101764.06;5073232;28;20060;-40
2023/09/24 02:44:06;;;;;;;8.27;3.60;;;;;;;21.77;46.51;101769.28;5071743;28;20065;-41
2023/09/24 02:46:54;;;;;;;5.65;2.97;;;;;;;21.76;46.67;101768.47;5072136;28;20057;-43
2023/09/24 02:49:41;;;;;;;7.32;3.05;;;;;;;21.75;46.46;101768.84;5072353;28;20064;-45
2023/09/24 02:52:29;;;;;;;9.30;3.05;;;;;;;21.73;46.89;101772.00;5072348;28;20056;-43
2023/09/24 02:55:17;;;;;;;8.20;3.58;;;;;;;21.72;46.48;101776.00;5057407;28;20064;-46
2023/09/24 02:58:05;;;;;;;7.70;3.42;;;;;;;21.71;46.86;101782.78;5072477;28;20056;-46
2023/09/24 03:00:53;;;;;;;9.82;3.38;;;;;;;21.69;46.39;101771.09;5057573;28;20068;-48
2023/09/24 03:03:40;;;;;;;7.68;3.50;;;;;;;21.70;46.70;101778.34;5058503;28;20063;-47
2023/09/24 03:06:28;;;;;;;7.03;3.45;;;;;;;21.69;46.78;101779.53;5058629;28;20048;-39
2023/09/24 03:09:17;;;;;;;7.57;3.13;;;;;;;21.72;46.44;101778.81;5057733;28;20057;-40
2023/09/24 03:12:04;;;;;;;9.13;3.33;;;;;;;21.75;46.20;101777.25;5071998;28;20053;-40
2023/09/24 03:14:52;;;;;;;7.55;3.47;;;;;;;21.71;46.57;101779.16;5058410;28;20057;-47
2023/09/24 03:17:43;;;;;;;7.45;3.15;;;;;;;21.69;46.73;101778.72;5069038;28;20055;-40
2023/09/24 03:20:32;;;;;;;7.18;3.28;;;;;;;21.70;46.60;101775.56;5095810;28;20047;-45
2023/09/24 03:23:20;;;;;;;5.43;2.80;;;;;;;21.68;46.77;101772.28;5096117;28;20052;-45
2023/09/24 03:26:08;;;;;;;7.57;3.55;;;;;;;21.72;46.56;101773.22;5108826;28;20051;-45
2023/09/24 03:28:56;;;;;;;7.00;3.03;;;;;;;21.69;46.38;101782.31;5097542;28;20056;-48
2023/09/24 03:31:44;;;;;;;5.57;2.80;;;;;;;21.70;46.22;101786.78;5067328;28;20386;-40
2023/09/24 03:34:31;;;;;;;8.00;3.17;;;;;;;21.71;46.33;101785.59;5096657;28;20705;-45
2023/09/24 03:37:19;;;;;;;8.23;3.85;;;;;;;21.70;46.20;101785.94;5081957;28;20056;-39
2023/09/24 03:40:10;;;;;;;7.80;3.15;;;;;;;21.67;46.23;101786.69;5079677;28;20052;-39
2023/09/24 03:42:58;;;;;;;8.57;3.25;;;;;;;21.71;46.21;101784.75;5079343;28;20048;-43
2023/09/24 03:45:45;;;;;;;7.45;3.30;;;;;;;21.71;45.75;101785.59;5106420;28;20059;-40
2023/09/24 03:48:33;;;;;;;6.28;2.95;;;;;;;21.71;45.78;101787.56;5095751;28;20047;-41
2023/09/24 03:51:21;;;;;;;7.07;3.50;;;;;;;21.71;46.06;101784.75;5107862;28;20059;-43
2023/09/24 03:54:11;;;;;;;6.07;3.07;;;;;;;21.69;45.98;101781.53;5092234;28;20048;-45
2023/09/24 03:56:59;;;;;;;7.03;3.30;;;;;;;21.69;46.30;101775.91;5067857;28;20406;-41
2023/09/24 03:59:46;;;;;;;8.25;3.38;;;;;;;21.65;46.46;101783.41;5095502;28;20052;-40
2023/09/24 04:02:35;;;;;;;8.07;3.15;;;;;;;21.62;46.52;101786.97;5095571;28;20059;-46
2023/09/24 04:05:23;;;;;;;7.32;3.38;;;;;;;21.61;46.53;101805.75;5095141;28;20459;-45
2023/09/24 04:08:12;;;;;;;7.72;3.55;;;;;;;21.59;46.58;101799.69;5095056;28;20051;-45
2023/09/24 04:11:00;;;;;;;6.10;3.00;;;;;;;21.63;45.82;101805.41;5079898;28;20057;-44
2023/09/24 04:13:48;;;;;;;7.70;3.38;;;;;;;21.60;46.27;101806.13;5073587;28;20055;-47
2023/09/24 04:16:36;;;;;;;7.93;3.08;;;;;;;21.59;46.34;101798.88;5074521;28;20056;-48
2023/09/24 04:19:24;;;;;;;7.72;2.97;;;;;;;21.58;46.20;101797.25;5074811;28;20063;-48
2023/09/24 04:22:12;;;;;;;8.40;3.30;;;;;;;21.57;46.29;101792.81;5095599;28;20044;-46
2023/09/24 04:25:02;;;;;;;6.57;2.75;;;;;;;21.54;46.57;101791.56;5081627;28;20044;-46
2023/09/24 04:27:50;;;;;;;7.50;3.10;;;;;;;21.55;46.29;101790.38;5064618;28;20521;-45
2023/09/24 04:30:37;;;;;;;6.65;3.25;;;;;;;21.54;46.57;101799.97;5074834;28;20419;-46
2023/09/24 04:33:25;;;;;;;7.47;3.20;;;;;;;21.58;46.26;101788.84;5073185;28;20072;-44
2023/09/24 04:36:13;;;;;;;6.63;3.17;;;;;;;21.56;46.42;101794.81;5059945;28;20060;-46
2023/09/24 04:39:02;;;;;;;7.70;3.67;;;;;;;21.56;46.12;101788.38;5076332;28;20410;-46
2023/09/24 04:41:50;;;;;;;8.37;3.20;;;;;;;21.56;46.30;101783.59;5094822;28;20060;-49
2023/09/24 04:44:42;;;;;;;7.05;3.00;;;;;;;21.55;46.13;101781.16;5094612;28;20293;-44
2023/09/24 04:47:29;;;;;;;7.55;3.10;;;;;;;21.56;46.40;101785.59;5094466;28;20059;-48
2023/09/24 04:50:18;;;;;;;7.82;3.58;;;;;;;21.53;46.39;101795.53;5094003;28;20059;-44
2023/09/24 04:53:06;;;;;;;7.47;3.40;;;;;;;21.54;46.14;101791.56;5094304;28;20052;-48
2023/09/24 04:55:54;;;;;;;9.95;3.13;;;;;;;21.57;45.96;101787.19;5079738;28;20051;-44
2023/09/24 04:58:42;;;;;;;8.98;3.17;;;;;;;21.54;46.21;101787.94;5079623;28;20505;-44
2023/09/24 05:01:29;;;;;;;6.53;3.25;;;;;;;21.55;45.83;101798.00;5092902;28;20055;-45
2023/09/24 05:04:18;;;;;;;7.07;3.15;;;;;;;21.60;45.58;101786.50;5094735;28;20059;-44
2023/09/24 05:07:06;;;;;;;9.30;2.78;;;;;;;21.59;45.62;101785.69;5086342;28;20697;-45
2023/09/24 05:09:54;;;;;;;6.30;2.83;;;;;;;21.56;46.04;101786.41;5094216;28;20572;-44
2023/09/24 05:12:42;;;;;;;6.32;2.72;;;;;;;21.57;45.99;101784.41;5093884;28;20048;-46
2023/09/24 05:15:29;;;;;;;8.13;3.30;;;;;;;21.54;46.09;101788.75;5106660;28;20612;-43
2023/09/24 05:18:17;;;;;;;5.47;2.63;;;;;;;21.59;45.67;101788.47;5093915;28;20048;-43
2023/09/24 05:21:17;;;;;;;7.13;3.17;;;;;;;21.58;45.44;101797.25;5094185;28;20052;-44
2023/09/24 05:24:04;;;;;;;6.75;2.95;;;;;;;21.60;45.97;101794.91;5094629;28;20044;-47
2023/09/24 05:26:52;;;;;;;7.22;3.10;;;;;;;21.61;45.65;101793.72;5095515;28;20062;-48
2023/09/24 05:29:40;;;;;;;8.52;3.30;;;;;;;21.61;45.51;101791.75;5094112;28;20040;-46
2023/09/24 05:32:27;;;;;;;6.38;3.08;;;;;;;21.58;45.35;101791.66;5066478;28;20044;-48
2023/09/24 05:35:15;;;;;;;9.00;3.58;;;;;;;21.61;45.27;101791.75;5074379;28;20049;-50
2023/09/24 05:38:03;;;;;;;8.68;3.10;;;;;;;21.60;45.45;101795.69;5073149;28;20059;-46
2023/09/24 05:40:50;;;;;;;5.38;3.00;;;;;;;21.57;45.30;101793.63;5089461;28;20067;-46
2023/09/24 05:43:44;;;;;;;7.90;3.22;;;;;;;21.61;45.30;101805.75;5094248;28;20059;-48
2023/09/24 05:46:32;;;;;;;9.25;3.60;;;;;;;21.58;45.74;101805.69;5093757;28;20059;-47
2023/09/24 05:49:20;;;;;;;7.80;3.08;;;;;;;21.58;45.46;101802.88;5093281;28;20052;-49
2023/09/24 05:52:07;;;;;;;7.40;3.03;;;;;;;21.57;45.05;101810.47;5093837;28;20052;-50
2023/09/24 05:54:55;;;;;;;9.20;3.38;;;;;;;21.67;45.01;101811.91;5092496;28;20048;-50
2023/09/24 05:57:43;;;;;;;9.50;3.65;;;;;;;21.72;45.00;101817.25;5092603;28;20402;-47
2023/09/24 06:00:31;;;;;;;9.48;3.50;;;;;;;21.69;44.78;101821.59;5077070;28;20048;-45
2023/09/24 06:03:19;;;;;;;7.63;3.42;;;;;;;21.74;44.88;101810.09;5093056;28;20060;-50
2023/09/24 06:06:10;;;;;;;9.07;3.50;;;;;;;21.76;44.62;101809.75;5093137;28;20051;-48
2023/09/24 06:08:58;;;;;;;7.43;3.35;;;;;;;21.80;44.46;101819.09;5093840;28;20068;-47
2023/09/24 06:11:46;;;;;;;9.45;3.60;;;;;;;21.82;44.59;101814.75;5091797;28;20056;-47
2023/09/24 06:14:33;;;;;;;8.13;3.42;;;;;;;21.84;44.59;101808.78;5093137;28;20048;-49
2023/09/24 06:17:21;;;;;;;9.68;3.22;;;;;;;21.85;44.16;101816.81;5091819;28;20044;-51
2023/09/24 06:20:10;;;;;;;12.90;3.85;;;;;;;21.85;44.38;101818.81;5073824;28;20068;-48
2023/09/24 06:22:58;;;;;;;9.68;3.67;;;;;;;21.82;44.43;101820.38;5073062;28;20059;-45
2023/09/24 06:25:46;;;;;;;8.43;3.40;;;;;;;21.82;44.42;101830.75;5073867;28;20045;-44
2023/09/24 06:28:33;;;;;;;7.57;3.65;;;;;;;21.78;44.32;101839.09;5057888;28;20533;-45
2023/09/24 06:31:22;;;;;;;9.57;3.83;;;;;;;21.80;44.37;101833.94;5072050;28;20067;-51
2023/09/24 06:34:09;;;;;;;11.68;4.07;;;;;;;21.80;44.17;101847.97;5067013;28;20044;-46
2023/09/24 06:36:57;;;;;;;8.57;3.72;;;;;;;21.81;44.35;101843.16;5075499;28;20395;-46
2023/09/24 06:39:45;;;;;;;8.00;4.07;;;;;;;21.79;44.52;101851.91;5085283;28;20052;-46
2023/09/24 06:42:32;;;;;;;8.57;3.47;;;;;;;21.76;44.75;101844.19;5091878;28;20056;-47
2023/09/24 06:45:20;;;;;;;6.78;3.25;;;;;;;21.80;44.50;101847.13;5091720;28;20048;-47
2023/09/24 06:48:07;;;;;;;12.85;4.43;;;;;;;21.78;44.63;101849.47;5076967;28;20075;-46
2023/09/24 06:51:09;;;;;;;8.93;4.00;;;;;;;21.79;44.62;101848.31;5079869;28;20048;-46
2023/09/24 06:53:56;;;;;;;9.67;3.80;;;;;;;21.80;44.33;101847.97;5096384;28;20052;-46
2023/09/24 06:56:45;;;;;;;8.32;3.42;;;;;;;21.79;44.46;101842.72;5096522;28;20520;-44
2023/09/24 06:59:33;;;;;;;8.68;3.63;;;;;;;21.78;44.25;101844.69;5096988;28;20052;-47
2023/09/24 07:02:20;;;;;;;9.05;3.47;;;;;;;21.78;44.33;101850.31;5090789;28;20060;-49
2023/09/24 07:05:08;;;;;;;10.50;3.75;;;;;;;21.78;44.38;101847.50;5076393;28;20040;-49
2023/09/24 07:07:56;;;;;;;8.23;3.45;;;;;;;21.77;44.41;101845.84;5076770;28;20061;-51
2023/09/24 07:10:43;;;;;;;10.05;3.60;;;;;;;21.79;44.24;101842.72;5075841;28;20057;-49
2023/09/24 07:13:34;;;;;;;8.63;3.50;;;;;;;21.80;44.45;101845.16;5076145;28;20052;-48
2023/09/24 07:16:23;;;;;;;12.80;3.78;;;;;;;21.88;44.27;101846.16;5087498;28;20052;-46
2023/09/24 07:19:11;;;;;;;7.30;3.42;;;;;;;21.91;43.99;101846.25;5089727;28;20052;-48
2023/09/24 07:21:58;;;;;;;8.55;3.80;;;;;;;21.93;43.82;101846.66;5097136;28;20490;-46
2023/09/24 07:24:46;;;;;;;10.27;3.75;;;;;;;21.94;44.11;101853.09;5096320;28;20498;-46
2023/09/24 07:27:34;;;;;;;7.60;3.72;;;;;;;21.96;43.92;101851.56;5096828;28;20047;-47
2023/09/24 07:30:22;;;;;;;8.35;3.25;;;;;;;21.95;43.91;101854.75;5096682;28;20063;-49
2023/09/24 07:33:10;;;;;;;8.02;3.72;;;;;;;21.97;43.82;101856.00;5095857;28;20060;-52
2023/09/24 07:35:58;;;;;;;7.18;3.50;;;;;;;21.94;43.59;101850.31;5095983;28;20044;-48
2023/09/24 07:38:45;;;;;;;9.40;3.50;;;;;;;21.92;44.12;101844.22;5081688;28;20647;-49
2023/09/24 07:41:33;;;;;;;7.90;3.33;;;;;;;21.88;43.90;101837.75;5095719;28;20531;-50
2023/09/24 07:44:20;;;;;;;9.38;3.10;;;;;;;21.85;43.95;101842.06;5088763;28;20048;-48
2023/09/24 07:47:08;;;;;;;7.30;3.47;;;;;;;21.85;44.11;101847.69;5114724;28;20056;-50
2023/09/24 07:49:56;;;;;;;7.32;3.20;;;;;;;21.80;44.39;101852.75;5077592;28;20056;-45
2023/09/24 07:52:43;;;;;;;8.80;3.28;;;;;;;21.80;44.58;101864.78;5094917;28;20052;-46
2023/09/24 07:55:31;;;;;;;6.47;3.38;;;;;;;21.79;44.57;101859.53;5095195;28;20045;-48
2023/09/24 07:58:19;;;;;;;8.85;3.95;;;;;;;22.13;48.43;101865.22;5100739;28;20055;-44
2023/09/24 08:01:07;;;;;;;7.65;3.63;;;;;;;22.26;46.59;101855.50;5096662;28;20048;-48
2023/09/24 08:03:55;;;;;;;8.05;3.45;;;;;;;22.22;46.19;101853.81;5075176;28;20076;-45
2023/09/24 08:06:43;;;;;;;9.05;3.92;;;;;;;22.15;45.87;101853.63;5078253;28;20059;-48
2023/09/24 08:09:30;;;;;;;9.32;3.15;;;;;;;22.09;45.75;101852.25;5109928;28;20062;-46
2023/09/24 08:12:18;;;;;;;7.50;3.47;;;;;;;21.98;45.61;101854.00;5094583;28;20063;-48
2023/09/24 08:15:06;;;;;;;8.63;3.60;;;;;;;21.91;46.23;101856.66;5094691;28;20055;-46
2023/09/24 08:17:54;;;;;;;7.72;3.55;;;;;;;21.89;46.16;101873.84;5094986;28;20052;-43
2023/09/24 08:20:42;;;;;;;12.15;3.22;;;;;;;21.85;46.26;101863.69;5095059;28;20060;-45
2023/09/24 08:23:31;;;;;;;6.82;3.22;;;;;;;21.80;46.08;101856.38;5092184;28;20048;-47
2023/09/24 08:26:19;;;;;;;8.65;3.08;;;;;;;21.80;46.25;101866.78;5097336;28;20132;-50
2023/09/24 08:29:08;;;;;;;7.32;3.50;;;;;;;21.75;46.41;101859.41;5100284;28;20051;-46
2023/09/24 08:31:56;;;;;;;10.63;3.97;;;;;;;21.73;46.36;101861.75;5089515;28;20051;-47
2023/09/24 08:34:43;;;;;;;8.00;3.20;;;;;;;21.74;46.54;101866.19;5088819;28;20051;-47
2023/09/24 08:37:32;;;;;;;8.02;3.38;;;;;;;21.78;46.30;101869.94;5084379;28;20066;-48
2023/09/24 08:40:20;;;;;;;9.57;3.38;;;;;;;21.77;46.28;101865.47;5102575;27;20426;-48
2023/09/24 08:43:16;;;;;;;7.50;2.85;;;;;;;21.78;46.44;101860.69;5093135;28;20071;-48
2023/09/24 08:46:04;;;;;;;7.00;3.00;;;;;;;21.78;46.23;101864.31;5094305;28;20051;-48
2023/09/24 08:48:52;;;;;;;7.78;3.17;;;;;;;21.76;46.43;101863.03;5081892;28;20052;-51
2023/09/24 08:51:40;;;;;;;7.22;3.30;;;;;;;21.64;46.38;101863.09;5069149;28;20051;-46
2023/09/24 08:54:28;;;;;;;7.57;3.45;;;;;;;21.77;46.74;101859.06;5105433;28;20044;-47
2023/09/24 08:57:15;;;;;;;9.73;3.08;;;;;;;21.78;47.06;101855.91;5083137;28;20055;-45
2023/09/24 09:00:09;;;;;;;9.20;4.00;;;;;;;20.08;47.09;101860.41;5083296;28;20048;-49
2023/09/24 09:02:41;;;;;;;8.77;3.53;;;;;;;20.82;52.54;101851.56;5059171;28;20058;-46
2023/09/24 09:05:22;;;;;;;11.63;3.22;;;;;;;21.25;50.68;101850.84;5094400;28;20513;-48
2023/09/24 09:07:59;;;;;;;10.35;3.45;;;;;;;21.24;49.50;101863.22;5087200;28;20051;-52
2023/09/24 09:10:34;;;;;;;14.18;3.92;;;;;;;20.31;48.84;101857.97;5096039;28;20062;-49
2023/09/24 09:13:11;;;;;;;7.07;3.10;;;;;;;20.81;50.52;101849.13;5106199;28;20059;-45
2023/09/24 09:15:39;;;;;;;12.27;4.40;;;;;;;20.39;51.57;101843.03;5092940;28;20040;-48
2023/09/24 09:18:22;;;;;;;11.05;4.45;;;;;;;19.94;48.66;101843.19;5075022;28;20062;-49
2023/09/24 09:20:50;;;;;;;11.27;3.88;;;;;;;21.00;48.60;101840.91;5072254;28;20055;-46
2023/09/24 09:23:46;;;;;;;7.82;3.47;;;;;;;21.09;51.37;101850.81;5073645;28;20048;-46
2023/09/24 09:26:13;;;;;;;11.05;3.90;;;;;;;20.84;51.85;101846.44;5096822;28;20060;-45
2023/09/24 09:28:41;;;;;;;9.00;3.60;;;;;;;20.77;48.67;101842.59;5094711;28;20055;-46
2023/09/24 09:31:10;;;;;;;8.10;3.67;;;;;;;21.43;52.30;101845.72;5105083;28;20052;-46
2023/09/24 09:33:42;;;;;;;10.52;3.30;;;;;;;20.90;50.85;101841.41;5097839;28;20058;-48
2023/09/24 09:36:24;;;;;;;6.80;3.30;;;;;;;20.29;55.36;101848.31;5097322;28;20052;-47
2023/09/24 09:38:52;;;;;;;8.65;3.90;;;;;;;20.97;55.62;101839.59;5094041;28;21164;-46
2023/09/24 09:41:21;;;;;;;8.45;3.15;;;;;;;21.16;54.67;101836.19;5095285;28;20076;-46
2023/09/24 09:43:49;;;;;;;11.38;3.65;;;;;;;21.27;50.56;101824.06;5103507;28;20048;-48
2023/09/24 09:46:18;;;;;;;13.30;5.82;;;;;;;19.81;49.93;101829.50;5101575;28;20047;-47
2023/09/24 09:48:57;;;;;;;8.63;3.65;;;;;;;20.77;52.93;101828.59;5099600;28;20051;-44
2023/09/24 09:51:25;;;;;;;10.50;4.10;;;;;;;21.09;50.23;101813.56;5088626;28;20063;-44
2023/09/24 09:54:08;;;;;;;7.82;3.10;;;;;;;20.29;51.93;101817.53;5096830;28;20469;-44
2023/09/24 09:56:36;;;;;;;9.13;3.80;;;;;;;21.08;50.16;101818.34;5097729;28;20043;-46
2023/09/24 09:59:04;;;;;;;7.65;3.15;;;;;;;21.01;49.70;101825.72;5097385;28;20060;-44
2023/09/24 10:01:32;;;;;;;7.25;3.17;;;;;;;20.29;51.41;101812.75;5112332;28;20082;-47
2023/09/24 10:04:00;;;;;;;7.95;3.15;;;;;;;20.22;50.85;101817.31;5097205;28;20049;-44
2023/09/24 10:06:33;;;;;;;10.52;3.10;;;;;;;20.01;47.22;101809.03;5095709;28;20044;-45
2023/09/24 10:09:01;;;;;;;7.57;3.00;;;;;;;20.85;49.05;101808.84;5089423;28;20051;-38
2023/09/24 10:11:31;;;;;;;6.28;2.78;;;;;;;20.13;50.24;101817.41;5096801;28;20050;-39
2023/09/24 10:14:05;;;;;;;7.07;2.58;;;;;;;20.72;48.30;101803.66;5083808;28;20051;-43
2023/09/24 10:16:38;;;;;;;9.82;3.00;;;;;;;20.20;47.74;101800.03;5071599;28;20039;-45
2023/09/24 10:19:10;;;;;;;6.22;2.70;;;;;;;20.80;46.31;101794.28;5094918;28;20078;-44
2023/09/24 10:21:45;;;;;;;9.25;2.40;;;;;;;21.15;46.66;101789.69;5095732;28;20051;-46
2023/09/24 10:24:12;;;;;;;10.27;2.92;;;;;;;20.66;45.52;101788.28;5102772;28;20498;-48
2023/09/24 10:27:06;;;;;;;7.40;2.38;;;;;;;20.73;46.58;101783.69;5096531;28;20048;-48
2023/09/24 10:29:45;;;;;;;10.15;2.70;;;;;;;19.56;47.73;101783.94;5080265;28;20060;-43
2023/09/24 10:32:14;;;;;;;7.70;2.60;;;;;;;20.23;48.16;101774.97;5100820;28;20051;-46
2023/09/24 10:34:51;;;;;;;7.13;2.30;;;;;;;20.99;46.61;101767.25;5085692;28;20048;-47
2023/09/24 10:37:21;;;;;;;9.57;2.70;;;;;;;21.01;45.91;101775.28;5116012;28;20040;-48
2023/09/24 10:39:58;;;;;;;8.13;2.72;;;;;;;20.91;44.41;101776.63;5099818;28;20040;-50
2023/09/24 10:42:44;;;;;;;16.60;2.83;;;;;;;20.93;46.17;101768.66;5104382;28;20680;-47
2023/09/24 10:45:14;;;;;;;8.75;2.40;;;;;;;21.13;45.83;101770.44;5100601;28;20058;-41
2023/09/24 10:47:44;;;;;;;7.18;2.65;;;;;;;21.30;45.36;101762.88;5106844;28;20036;-41
2023/09/24 10:50:19;;;;;;;8.17;2.87;;;;;;;21.40;44.88;101767.94;5096952;28;20052;-40
2023/09/24 10:52:59;;;;;;;5.70;2.20;;;;;;;21.49;44.80;101761.00;5071100;28;20051;-39
2023/09/24 10:55:26;;;;;;;6.82;2.65;;;;;;;21.50;45.00;101756.19;5092345;28;20094;-44
2023/09/24 10:57:55;;;;;;;8.93;2.80;;;;;;;21.60;44.50;101752.84;5097214;28;20072;-40
2023/09/24 11:00:27;;;;;;;5.97;2.47;;;;;;;21.43;44.40;101748.41;5098673;28;20086;-41
2023/09/24 11:02:57;;;;;;;6.05;2.40;;;;;;;21.45;44.71;101748.88;5097681;28;20047;-40
2023/09/24 11:05:25;;;;;;;13.50;2.95;;;;;;;21.52;44.73;101742.63;5076463;28;20044;-42
2023/09/24 11:07:56;;;;;;;7.93;2.42;;;;;;;21.67;44.87;101739.00;5079138;28;20055;-39
2023/09/24 11:10:25;;;;;;;5.40;2.00;;;;;;;21.71;44.71;101737.09;5103463;28;20040;-43
2023/09/24 11:12:55;;;;;;;8.67;2.33;;;;;;;21.37;45.15;101743.44;5098128;28;20051;-40
2023/09/24 11:15:23;;;;;;;6.70;2.70;;;;;;;20.93;43.88;101743.47;5077512;28;20063;-41
2023/09/24 11:17:51;;;;;;;5.80;2.20;;;;;;;21.04;41.91;101744.56;5085053;28;20044;-40
2023/09/24 11:20:22;;;;;;;4.90;2.28;;;;;;;21.16;44.48;101750.13;5082507;28;20601;-43
2023/09/24 11:23:05;;;;;;;8.45;3.80;;;;;;;21.60;45.13;101744.44;5095327;28;20044;-40
2023/09/24 11:25:33;;;;;;;11.02;3.25;;;;;;;21.71;45.05;101743.50;5097248;28;20052;-46
2023/09/24 11:28:01;;;;;;;5.82;2.47;;;;;;;21.60;44.81;101745.22;5090385;28;20054;-45
2023/09/24 11:30:44;;;;;;;6.03;2.25;;;;;;;21.73;45.06;101737.53;5099960;28;20515;-45
2023/09/24 11:33:16;;;;;;;10.00;4.50;;;;;;;21.83;44.64;101742.59;5092798;28;20094;-48
2023/09/24 11:35:45;;;;;;;12.55;3.95;;;;;;;21.98;45.00;101739.81;5087544;28;20051;-50
2023/09/24 11:38:12;;;;;;;6.90;3.08;;;;;;;21.94;44.72;101722.06;5088335;28;20051;-46
2023/09/24 11:40:41;;;;;;;7.78;3.22;;;;;;;21.70;42.10;101733.50;5096885;28;20518;-48
2023/09/24 11:43:11;;;;;;;6.03;2.60;;;;;;;21.31;44.85;101723.28;5107237;28;20052;-52
2023/09/24 11:45:40;;;;;;;6.18;2.63;;;;;;;21.17;44.18;101718.13;5097696;28;20048;-47
2023/09/24 11:48:31;;;;;;;9.70;3.20;;;;;;;21.43;46.15;101714.78;5103496;28;20063;-48
2023/09/24 11:51:02;;;;;;;10.15;3.03;;;;;;;21.35;46.56;101724.19;5079817;28;20054;-49
2023/09/24 11:53:30;;;;;;;6.93;2.55;;;;;;;21.47;45.69;101717.66;5083477;28;20445;-52
2023/09/24 11:55:58;;;;;;;8.43;2.72;;;;;;;21.70;45.57;101715.84;5104492;28;20050;-47
2023/09/24 11:58:26;;;;;;;6.05;2.80;;;;;;;21.69;45.35;101717.03;5096012;28;20070;-40
2023/09/24 12:00:56;;;;;;;6.45;2.63;;;;;;;21.35;44.48;101706.53;5082800;28;20047;-40
2023/09/24 12:03:24;;;;;;;6.97;2.33;;;;;;;21.55;45.67;101705.47;5100750;28;20051;-46
2023/09/24 12:05:51;;;;;;;5.22;2.58;;;;;;;21.67;44.40;101699.75;5102765;28;20047;-41
2023/09/24 12:08:19;;;;;;;8.40;2.78;;;;;;;21.75;45.29;101693.94;5094455;28;20044;-49
2023/09/24 12:10:47;;;;;;;10.45;4.20;;;;;;;21.90;44.95;101692.28;5096177;28;20040;-40
2023/09/24 12:13:16;;;;;;;7.22;2.80;;;;;;;21.77;40.68;101682.34;5098634;28;20040;-40
2023/09/24 12:15:43;;;;;;;6.00;2.35;;;;;;;;;;5091973;28;20686;-40
2023/09/24 12:18:11;;;;;;;5.57;2.45;;;;;;;21.89;42.06;101665.41;5082084;28;20052;-40
2023/09/24 12:20:40;;;;;;;10.98;3.10;;;;;;;21.93;44.72;101683.16;5098516;28;20047;-39
2023/09/24 12:23:08;;;;;;;;;;;;;;;21.75;43.12;101673.47;5101290;28;20044;-40
2023/09/24 12:25:36;;;;;;;6.68;2.90;;;;;;;21.52;41.73;101680.94;5084550;28;19924;-40
2023/09/24 12:28:07;;;;;;;6.40;2.47;;;;;;;21.54;43.91;101672.97;5100068;27;20048;-39
2023/09/24 12:30:38;;;;;;;7.28;3.63;;;;;;;21.51;44.08;101674.53;5075484;28;20051;-41
2023/09/24 12:33:06;;;;;;;7.57;2.85;;;;;;;21.27;42.65;101671.13;5077952;28;20067;-38
2023/09/24 12:35:40;;;;;;;5.68;1.92;;;;;;;21.49;42.60;101664.84;5097696;28;20600;-41
2023/09/24 12:38:08;;;;;;;7.00;2.63;;;;;;;20.91;41.31;101663.75;5073244;28;20040;-43
2023/09/24 12:40:36;;;;;;;8.43;2.45;;;;;;;21.36;42.77;101658.53;5093998;28;20056;-41